logo
Search for airport 
image banner adimage banner adimage banner ad
image banner ad

YJCO - Jericho Airport

Located in Jericho, Australia

ICAO - YJCO, IATA -

Data provided by Airmate  

General information

Coordinates: S42°22'5" E147°20'11"
Elevation is 1402 feet MSL.
Magnetic variation is 15° East
View others Airports in Tasmania

Operational data

Special qualification required
Current time UTC:
Current local time:
Weather at : YMHB - Hobart ( 54 km )
METAR: YMHB 131530Z AUTO 33008KT 9999 // NCD 15/10 Q1018 RF00.0/000.0
TAF: TAF YMHB 131403Z 1315/1412 31006KT 9999 SCT040
View NOTAMs / SUP AIP / TFR affecting this airport [VIEW]
Communications frequencies: [VIEW]

Runways:

RWY identifierQFULength (ft)Width (ft)SurfaceLDA (ft)
0130°218054GRAS
19210°218054GRAS

Airport contact information

Address: Jericho Australia

Satellite view of YJCO